sensor_id;sensor_type;location;lat;lon;timestamp;pressure;altitude;pressure_sealevel;temperature;humidity
32243;BME280;18731;42.830;24.390;2023-04-28T03:00:06;94804.56;;;3.04;74.24
32243;BME280;18731;42.830;24.390;2023-04-28T03:02:33;94801.09;;;3.08;74.00
32243;BME280;18731;42.830;24.390;2023-04-28T03:04:59;94793.22;;;3.03;73.84
32243;BME280;18731;42.830;24.390;2023-04-28T03:07:25;94816.41;;;3.06;74.38
32243;BME280;18731;42.830;24.390;2023-04-28T03:09:50;94822.22;;;3.03;74.28
32243;BME280;18731;42.830;24.390;2023-04-28T03:12:16;94797.50;;;2.89;74.19
32243;BME280;18731;42.830;24.390;2023-04-28T03:14:41;94815.34;;;3.07;74.05
32243;BME280;18731;42.830;24.390;2023-04-28T03:17:07;94807.72;;;3.06;74.08
32243;BME280;18731;42.830;24.390;2023-04-28T03:19:32;94813.34;;;2.89;73.85
32243;BME280;18731;42.830;24.390;2023-04-28T03:21:58;94831.75;;;2.94;73.89
32243;BME280;18731;42.830;24.390;2023-04-28T03:24:23;94837.53;;;3.01;73.71
32243;BME280;18731;42.830;24.390;2023-04-28T03:26:49;94843.56;;;3.07;73.44
32243;BME280;18731;42.830;24.390;2023-04-28T03:29:15;94846.22;;;3.07;73.34
32243;BME280;18731;42.830;24.390;2023-04-28T03:31:41;94859.13;;;3.08;73.33
32243;BME280;18731;42.830;24.390;2023-04-28T03:34:07;94864.41;;;3.08;73.30
32243;BME280;18731;42.830;24.390;2023-04-28T03:36:33;94846.78;;;2.94;73.43
32243;BME280;18731;42.830;24.390;2023-04-28T03:38:59;94869.97;;;3.02;73.96
32243;BME280;18731;42.830;24.390;2023-04-28T03:41:24;94858.41;;;2.87;74.27
32243;BME280;18731;42.830;24.390;2023-04-28T03:43:50;94866.06;;;2.89;74.51
32243;BME280;18731;42.830;24.390;2023-04-28T03:46:17;94876.03;;;2.97;74.40
32243;BME280;18731;42.830;24.390;2023-04-28T03:48:43;94866.56;;;2.96;74.31
32243;BME280;18731;42.830;24.390;2023-04-28T03:51:10;94880.47;;;3.12;73.89
32243;BME280;18731;42.830;24.390;2023-04-28T03:53:36;94878.38;;;3.04;74.41
32243;BME280;18731;42.830;24.390;2023-04-28T03:56:02;94883.34;;;3.15;74.40
32243;BME280;18731;42.830;24.390;2023-04-28T03:58:27;94883.38;;;3.10;74.45
32243;BME280;18731;42.830;24.390;2023-04-28T04:00:53;94880.72;;;3.15;74.30
32243;BME280;18731;42.830;24.390;2023-04-28T04:03:19;94896.72;;;3.34;73.96
32243;BME280;18731;42.830;24.390;2023-04-28T04:05:47;94898.03;;;3.32;74.03
32243;BME280;18731;42.830;24.390;2023-04-28T04:08:13;94900.13;;;3.35;74.26
32243;BME280;18731;42.830;24.390;2023-04-28T04:10:39;94874.78;;;3.39;74.03
32243;BME280;18731;42.830;24.390;2023-04-28T04:13:04;94891.59;;;3.53;73.54
32243;BME280;18731;42.830;24.390;2023-04-28T04:15:30;94894.16;;;3.63;73.86
32243;BME280;18731;42.830;24.390;2023-04-28T04:17:56;94888.53;;;3.75;74.13
32243;BME280;18731;42.830;24.390;2023-04-28T04:20:22;94899.81;;;3.85;74.41
32243;BME280;18731;42.830;24.390;2023-04-28T04:22:47;94892.94;;;3.90;74.11
32243;BME280;18731;42.830;24.390;2023-04-28T04:25:13;94905.56;;;3.93;72.21
32243;BME280;18731;42.830;24.390;2023-04-28T04:27:38;94902.31;;;4.06;71.75
32243;BME280;18731;42.830;24.390;2023-04-28T04:30:05;94886.78;;;3.99;72.07
32243;BME280;18731;42.830;24.390;2023-04-28T04:32:30;94899.53;;;4.21;72.17
32243;BME280;18731;42.830;24.390;2023-04-28T04:34:56;94903.13;;;4.35;71.41
32243;BME280;18731;42.830;24.390;2023-04-28T04:37:22;94901.50;;;4.39;70.74
32243;BME280;18731;42.830;24.390;2023-04-28T04:39:47;94910.13;;;4.50;71.03
32243;BME280;18731;42.830;24.390;2023-04-28T04:42:13;94900.22;;;4.61;70.29
32243;BME280;18731;42.830;24.390;2023-04-28T04:44:39;94890.50;;;4.80;69.71
32243;BME280;18731;42.830;24.390;2023-04-28T04:47:04;94898.53;;;5.17;69.13
32243;BME280;18731;42.830;24.390;2023-04-28T04:49:30;94909.84;;;5.47;68.40
32243;BME280;18731;42.830;24.390;2023-04-28T04:51:56;94904.63;;;5.79;68.06
32243;BME280;18731;42.830;24.390;2023-04-28T04:54:21;94906.59;;;5.93;65.19
32243;BME280;18731;42.830;24.390;2023-04-28T04:56:47;94911.50;;;6.18;64.02
32243;BME280;18731;42.830;24.390;2023-04-28T04:59:13;94915.56;;;6.29;62.33
32243;BME280;18731;42.830;24.390;2023-04-28T05:01:38;94907.19;;;6.55;62.42
32243;BME280;18731;42.830;24.390;2023-04-28T05:04:05;94914.78;;;6.75;63.60
32243;BME280;18731;42.830;24.390;2023-04-28T05:06:30;94909.47;;;6.75;63.54
32243;BME280;18731;42.830;24.390;2023-04-28T05:08:56;94898.66;;;6.85;62.70
32243;BME280;18731;42.830;24.390;2023-04-28T05:11:23;94906.53;;;6.90;62.56
32243;BME280;18731;42.830;24.390;2023-04-28T05:13:50;94902.03;;;6.91;62.68
32243;BME280;18731;42.830;24.390;2023-04-28T05:16:16;94910.38;;;6.98;62.27
32243;BME280;18731;42.830;24.390;2023-04-28T05:18:41;94906.34;;;7.00;61.33
32243;BME280;18731;42.830;24.390;2023-04-28T05:21:07;94903.50;;;7.10;61.57
32243;BME280;18731;42.830;24.390;2023-04-28T05:23:36;94897.69;;;7.22;60.37
32243;BME280;18731;42.830;24.390;2023-04-28T05:26:01;94898.06;;;7.29;59.12
32243;BME280;18731;42.830;24.390;2023-04-28T05:28:29;94893.94;;;7.37;58.95
32243;BME280;18731;42.830;24.390;2023-04-28T05:30:55;94905.72;;;7.58;58.50
32243;BME280;18731;42.830;24.390;2023-04-28T05:33:21;94882.09;;;7.57;57.45
32243;BME280;18731;42.830;24.390;2023-04-28T05:35:49;94905.06;;;7.89;57.85
32243;BME280;18731;42.830;24.390;2023-04-28T05:38:16;94891.91;;;8.06;56.51
32243;BME280;18731;42.830;24.390;2023-04-28T05:40:41;94902.09;;;8.49;55.75
32243;BME280;18731;42.830;24.390;2023-04-28T05:43:07;94885.97;;;8.76;51.70
32243;BME280;18731;42.830;24.390;2023-04-28T05:45:32;94889.41;;;9.16;50.90
32243;BME280;18731;42.830;24.390;2023-04-28T05:47:59;94899.81;;;9.35;48.49
32243;BME280;18731;42.830;24.390;2023-04-28T05:50:25;94895.47;;;9.56;48.22
32243;BME280;18731;42.830;24.390;2023-04-28T05:52:50;94881.53;;;9.77;47.18
32243;BME280;18731;42.830;24.390;2023-04-28T05:55:16;94882.78;;;9.96;46.43
32243;BME280;18731;42.830;24.390;2023-04-28T05:57:42;94881.38;;;10.16;45.02
32243;BME280;18731;42.830;24.390;2023-04-28T06:00:08;94891.28;;;10.24;44.13
32243;BME280;18731;42.830;24.390;2023-04-28T06:02:34;94885.94;;;10.24;43.00
32243;BME280;18731;42.830;24.390;2023-04-28T06:05:00;94885.47;;;10.31;42.20
32243;BME280;18731;42.830;24.390;2023-04-28T06:07:26;94893.47;;;10.40;41.15
32243;BME280;18731;42.830;24.390;2023-04-28T06:09:53;94882.03;;;10.30;41.21
32243;BME280;18731;42.830;24.390;2023-04-28T06:12:18;94890.97;;;10.35;41.51
32243;BME280;18731;42.830;24.390;2023-04-28T06:14:44;94881.53;;;10.37;44.82
32243;BME280;18731;42.830;24.390;2023-04-28T06:17:10;94892.88;;;10.43;43.27
32243;BME280;18731;42.830;24.390;2023-04-28T06:19:35;94893.31;;;10.53;43.43
32243;BME280;18731;42.830;24.390;2023-04-28T06:22:01;94892.50;;;10.70;42.72
32243;BME280;18731;42.830;24.390;2023-04-28T06:24:26;94881.63;;;10.84;41.06
32243;BME280;18731;42.830;24.390;2023-04-28T06:26:52;94888.19;;;10.95;40.33
32243;BME280;18731;42.830;24.390;2023-04-28T06:29:18;94889.53;;;11.10;40.53
32243;BME280;18731;42.830;24.390;2023-04-28T06:31:44;94877.69;;;11.19;39.83
32243;BME280;18731;42.830;24.390;2023-04-28T06:34:10;94878.16;;;11.51;40.27
32243;BME280;18731;42.830;24.390;2023-04-28T06:36:36;94871.00;;;11.64;40.65
32243;BME280;18731;42.830;24.390;2023-04-28T06:39:02;94887.75;;;12.02;39.87
32243;BME280;18731;42.830;24.390;2023-04-28T06:41:27;94888.53;;;12.03;39.73
32243;BME280;18731;42.830;24.390;2023-04-28T06:43:53;94887.09;;;12.26;40.46
32243;BME280;18731;42.830;24.390;2023-04-28T06:46:19;94873.75;;;12.38;40.32
32243;BME280;18731;42.830;24.390;2023-04-28T06:48:45;94867.69;;;12.62;39.76
32243;BME280;18731;42.830;24.390;2023-04-28T06:51:10;94877.19;;;12.72;36.81
32243;BME280;18731;42.830;24.390;2023-04-28T06:53:36;94882.84;;;12.58;38.77
32243;BME280;18731;42.830;24.390;2023-04-28T06:56:02;94877.69;;;12.98;39.95
32243;BME280;18731;42.830;24.390;2023-04-28T06:58:28;94876.00;;;12.81;37.37
32243;BME280;18731;42.830;24.390;2023-04-28T07:00:53;94880.09;;;13.12;39.29
32243;BME280;18731;42.830;24.390;2023-04-28T07:03:19;94871.31;;;12.91;38.11
32243;BME280;18731;42.830;24.390;2023-04-28T07:05:45;94876.38;;;13.04;38.57
32243;BME280;18731;42.830;24.390;2023-04-28T07:08:10;94879.97;;;13.08;37.62
32243;BME280;18731;42.830;24.390;2023-04-28T07:10:36;94877.63;;;13.07;37.55
32243;BME280;18731;42.830;24.390;2023-04-28T07:13:02;94875.31;;;13.17;39.71
32243;BME280;18731;42.830;24.390;2023-04-28T07:15:27;94885.88;;;13.14;38.01
32243;BME280;18731;42.830;24.390;2023-04-28T07:17:54;94882.09;;;13.15;38.61
32243;BME280;18731;42.830;24.390;2023-04-28T07:20:19;94878.78;;;13.42;36.46
32243;BME280;18731;42.830;24.390;2023-04-28T07:22:45;94883.91;;;13.35;37.22
32243;BME280;18731;42.830;24.390;2023-04-28T07:25:11;94872.97;;;13.28;37.13
32243;BME280;18731;42.830;24.390;2023-04-28T07:27:36;94880.31;;;13.68;39.36
32243;BME280;18731;42.830;24.390;2023-04-28T07:30:03;94869.88;;;13.91;37.76
32243;BME280;18731;42.830;24.390;2023-04-28T07:32:29;94868.13;;;14.23;39.29
32243;BME280;18731;42.830;24.390;2023-04-28T07:34:55;94832.97;;;14.00;37.58
32243;BME280;18731;42.830;24.390;2023-04-28T07:37:21;94859.75;;;14.40;38.79
32243;BME280;18731;42.830;24.390;2023-04-28T07:39:47;94864.16;;;14.32;37.06
32243;BME280;18731;42.830;24.390;2023-04-28T07:42:13;94861.03;;;14.30;37.63
32243;BME280;18731;42.830;24.390;2023-04-28T07:44:38;94853.09;;;14.34;35.99
32243;BME280;18731;42.830;24.390;2023-04-28T07:47:04;94848.75;;;14.57;37.02
32243;BME280;18731;42.830;24.390;2023-04-28T07:49:30;94856.72;;;14.54;34.69
32243;BME280;18731;42.830;24.390;2023-04-28T07:51:56;94857.94;;;14.56;36.60
32243;BME280;18731;42.830;24.390;2023-04-28T07:54:22;94851.06;;;14.43;36.48
32243;BME280;18731;42.830;24.390;2023-04-28T07:56:48;94854.50;;;14.87;36.83
32243;BME280;18731;42.830;24.390;2023-04-28T07:59:14;94857.28;;;15.22;38.94
32243;BME280;18731;42.830;24.390;2023-04-28T08:01:40;94852.44;;;14.96;35.58
32243;BME280;18731;42.830;24.390;2023-04-28T08:04:07;94853.72;;;15.02;36.29
32243;BME280;18731;42.830;24.390;2023-04-28T08:06:32;94839.22;;;14.60;36.57
32243;BME280;18731;42.830;24.390;2023-04-28T08:08:59;94847.22;;;15.19;40.45
32243;BME280;18731;42.830;24.390;2023-04-28T08:11:26;94845.81;;;15.72;38.47
32243;BME280;18731;42.830;24.390;2023-04-28T08:13:52;94844.22;;;15.87;35.24
32243;BME280;18731;42.830;24.390;2023-04-28T08:16:18;94846.53;;;15.69;34.61
32243;BME280;18731;42.830;24.390;2023-04-28T08:18:43;94841.13;;;16.04;35.86
32243;BME280;18731;42.830;24.390;2023-04-28T08:21:10;94847.34;;;16.08;34.77
32243;BME280;18731;42.830;24.390;2023-04-28T08:23:36;94840.53;;;15.95;35.29
32243;BME280;18731;42.830;24.390;2023-04-28T08:26:01;94847.06;;;16.33;36.69
32243;BME280;18731;42.830;24.390;2023-04-28T08:28:27;94834.03;;;16.35;34.40
32243;BME280;18731;42.830;24.390;2023-04-28T08:30:53;94840.69;;;16.22;38.11
32243;BME280;18731;42.830;24.390;2023-04-28T08:33:19;94827.38;;;16.10;33.52
32243;BME280;18731;42.830;24.390;2023-04-28T08:35:45;94825.66;;;16.21;35.11
32243;BME280;18731;42.830;24.390;2023-04-28T08:38:11;94823.59;;;15.44;34.88
32243;BME280;18731;42.830;24.390;2023-04-28T08:40:39;94833.50;;;15.71;36.23
32243;BME280;18731;42.830;24.390;2023-04-28T08:43:07;94819.72;;;15.26;34.47
32243;BME280;18731;42.830;24.390;2023-04-28T08:45:40;94827.25;;;15.36;36.69
32243;BME280;18731;42.830;24.390;2023-04-28T08:48:19;94822.13;;;15.47;35.16
32243;BME280;18731;42.830;24.390;2023-04-28T08:50:50;94819.16;;;16.02;34.92
32243;BME280;18731;42.830;24.390;2023-04-28T08:53:23;94817.94;;;16.00;33.82
32243;BME280;18731;42.830;24.390;2023-04-28T08:55:56;94824.09;;;15.50;34.12
32243;BME280;18731;42.830;24.390;2023-04-28T08:58:23;94809.69;;;15.07;35.54
32243;BME280;18731;42.830;24.390;2023-04-28T09:00:50;94807.41;;;14.62;35.33
32243;BME280;18731;42.830;24.390;2023-04-28T09:03:16;94813.25;;;14.36;35.67
32243;BME280;18731;42.830;24.390;2023-04-28T09:05:42;94814.84;;;14.25;37.37
32243;BME280;18731;42.830;24.390;2023-04-28T09:08:08;94810.78;;;14.59;34.83
32243;BME280;18731;42.830;24.390;2023-04-28T09:10:36;94797.97;;;14.68;35.83
32243;BME280;18731;42.830;24.390;2023-04-28T09:13:02;94811.84;;;14.86;36.63
32243;BME280;18731;42.830;24.390;2023-04-28T09:15:35;94811.56;;;14.59;35.18
32243;BME280;18731;42.830;24.390;2023-04-28T09:18:02;94804.22;;;14.56;35.84
32243;BME280;18731;42.830;24.390;2023-04-28T09:20:30;94806.38;;;14.23;34.26
32243;BME280;18731;42.830;24.390;2023-04-28T09:23:14;94801.00;;;14.51;36.60
32243;BME280;18731;42.830;24.390;2023-04-28T09:28:21;94798.00;;;15.50;34.28
32243;BME280;18731;42.830;24.390;2023-04-28T09:30:48;94799.00;;;15.10;33.31
32243;BME280;18731;42.830;24.390;2023-04-28T09:33:14;94789.91;;;15.15;35.29
32243;BME280;18731;42.830;24.390;2023-04-28T09:35:43;94796.69;;;15.09;36.31
32243;BME280;18731;42.830;24.390;2023-04-28T09:38:16;94802.06;;;14.77;37.05
32243;BME280;18731;42.830;24.390;2023-04-28T09:40:56;94786.72;;;14.78;35.32
32243;BME280;18731;42.830;24.390;2023-04-28T09:43:26;94792.88;;;14.35;35.93
32243;BME280;18731;42.830;24.390;2023-04-28T09:45:53;94798.38;;;14.10;37.53
32243;BME280;18731;42.830;24.390;2023-04-28T09:48:33;94798.31;;;14.23;37.48
32243;BME280;18731;42.830;24.390;2023-04-28T09:51:04;94785.41;;;14.88;37.70
32243;BME280;18731;42.830;24.390;2023-04-28T09:53:30;94792.44;;;15.59;39.65
32243;BME280;18731;42.830;24.390;2023-04-28T09:55:58;94780.34;;;15.33;34.48
32243;BME280;18731;42.830;24.390;2023-04-28T09:58:26;94789.91;;;15.15;32.89
32243;BME280;18731;42.830;24.390;2023-04-28T10:00:54;94784.88;;;14.98;34.94
32243;BME280;18731;42.830;24.390;2023-04-28T10:03:25;94783.69;;;14.79;33.73
32243;BME280;18731;42.830;24.390;2023-04-28T10:05:52;94778.56;;;14.74;35.31
32243;BME280;18731;42.830;24.390;2023-04-28T10:08:22;94772.72;;;14.41;35.01
32243;BME280;18731;42.830;24.390;2023-04-28T10:10:50;94771.03;;;14.21;36.69
32243;BME280;18731;42.830;24.390;2023-04-28T10:13:21;94781.53;;;14.26;34.90
32243;BME280;18731;42.830;24.390;2023-04-28T10:15:48;94781.09;;;14.67;37.30
32243;BME280;18731;42.830;24.390;2023-04-28T10:18:14;94780.97;;;15.11;36.86
32243;BME280;18731;42.830;24.390;2023-04-28T10:20:49;94778.13;;;15.04;35.68
32243;BME280;18731;42.830;24.390;2023-04-28T10:26:08;94788.53;;;14.58;38.41
32243;BME280;18731;42.830;24.390;2023-04-28T10:28:35;94773.69;;;14.48;36.41
32243;BME280;18731;42.830;24.390;2023-04-28T10:31:12;94776.75;;;14.78;36.97
32243;BME280;18731;42.830;24.390;2023-04-28T10:33:39;94777.28;;;15.35;36.37
32243;BME280;18731;42.830;24.390;2023-04-28T10:36:06;94770.13;;;15.58;34.82
32243;BME280;18731;42.830;24.390;2023-04-28T10:38:33;94767.50;;;15.78;33.53
32243;BME280;18731;42.830;24.390;2023-04-28T10:40:59;94775.69;;;15.50;34.21
32243;BME280;18731;42.830;24.390;2023-04-28T10:56:08;94765.09;;;15.57;36.16
32243;BME280;18731;42.830;24.390;2023-04-28T10:58:34;94768.16;;;15.04;36.24
32243;BME280;18731;42.830;24.390;2023-04-28T11:06:40;94775.16;;;13.62;38.79
32243;BME280;18731;42.830;24.390;2023-04-28T11:16:56;94757.66;;;15.85;39.49
32243;BME280;18731;42.830;24.390;2023-04-28T11:19:30;94748.25;;;16.60;35.63
32243;BME280;18731;42.830;24.390;2023-04-28T11:21:59;94744.34;;;17.03;33.64
32243;BME280;18731;42.830;24.390;2023-04-28T11:24:27;94736.38;;;16.19;31.86
32243;BME280;18731;42.830;24.390;2023-04-28T11:26:54;94734.00;;;15.94;31.58
32243;BME280;18731;42.830;24.390;2023-04-28T11:29:32;94737.66;;;16.05;32.89
32243;BME280;18731;42.830;24.390;2023-04-28T11:31:59;94734.91;;;16.44;32.98
32243;BME280;18731;42.830;24.390;2023-04-28T11:34:25;94745.75;;;16.48;34.90
32243;BME280;18731;42.830;24.390;2023-04-28T11:36:51;94745.22;;;16.19;33.53
32243;BME280;18731;42.830;24.390;2023-04-28T11:39:33;94747.88;;;16.38;33.92
32243;BME280;18731;42.830;24.390;2023-04-28T11:42:00;94731.75;;;16.84;33.34
32243;BME280;18731;42.830;24.390;2023-04-28T11:44:28;94742.16;;;16.63;33.07
32243;BME280;18731;42.830;24.390;2023-04-28T11:46:57;94751.25;;;16.13;33.54
32243;BME280;18731;42.830;24.390;2023-04-28T11:49:26;94742.38;;;16.31;33.76
32243;BME280;18731;42.830;24.390;2023-04-28T11:52:05;94737.31;;;16.72;33.82
32243;BME280;18731;42.830;24.390;2023-04-28T11:54:31;94744.19;;;16.92;34.48
32243;BME280;18731;42.830;24.390;2023-04-28T11:56:58;94723.97;;;16.79;32.76
32243;BME280;18731;42.830;24.390;2023-04-28T11:59:31;94738.03;;;17.18;32.90
32243;BME280;18731;42.830;24.390;2023-04-28T12:02:02;94722.16;;;17.40;33.59
32243;BME280;18731;42.830;24.390;2023-04-28T12:04:39;94708.47;;;17.25;32.09
32243;BME280;18731;42.830;24.390;2023-04-28T12:07:07;94716.34;;;17.11;31.12
32243;BME280;18731;42.830;24.390;2023-04-28T12:09:43;94709.75;;;17.35;31.69
32243;BME280;18731;42.830;24.390;2023-04-28T12:12:12;94701.78;;;17.46;31.83
32243;BME280;18731;42.830;24.390;2023-04-28T12:15:05;94702.09;;;18.00;29.83
32243;BME280;18731;42.830;24.390;2023-04-28T12:17:37;94694.25;;;18.22;30.20
32243;BME280;18731;42.830;24.390;2023-04-28T12:20:07;94690.38;;;18.23;29.89
32243;BME280;18731;42.830;24.390;2023-04-28T12:23:02;94689.78;;;17.70;29.72
32243;BME280;18731;42.830;24.390;2023-04-28T12:25:28;94690.09;;;16.82;30.73
32243;BME280;18731;42.830;24.390;2023-04-28T12:28:04;94693.88;;;16.77;32.71
32243;BME280;18731;42.830;24.390;2023-04-28T12:30:33;94682.69;;;17.01;31.81
32243;BME280;18731;42.830;24.390;2023-04-28T12:32:59;94680.38;;;17.00;34.15
32243;BME280;18731;42.830;24.390;2023-04-28T12:35:26;94685.56;;;17.42;32.64
32243;BME280;18731;42.830;24.390;2023-04-28T12:37:53;94678.59;;;17.11;32.29
32243;BME280;18731;42.830;24.390;2023-04-28T12:40:20;94686.59;;;17.04;31.54
32243;BME280;18731;42.830;24.390;2023-04-28T12:42:46;94681.19;;;17.04;32.27
32243;BME280;18731;42.830;24.390;2023-04-28T12:45:12;94668.44;;;16.75;30.33
32243;BME280;18731;42.830;24.390;2023-04-28T12:47:38;94660.78;;;16.54;32.03
32243;BME280;18731;42.830;24.390;2023-04-28T12:50:05;94680.06;;;16.79;32.30
32243;BME280;18731;42.830;24.390;2023-04-28T12:52:31;94667.81;;;17.11;31.12
32243;BME280;18731;42.830;24.390;2023-04-28T12:55:01;94676.75;;;16.89;32.04
32243;BME280;18731;42.830;24.390;2023-04-28T12:57:26;94667.00;;;16.58;31.73
32243;BME280;18731;42.830;24.390;2023-04-28T12:59:53;94668.50;;;16.32;32.72
32243;BME280;18731;42.830;24.390;2023-04-28T13:02:20;94660.84;;;16.34;32.32
32243;BME280;18731;42.830;24.390;2023-04-28T13:04:46;94666.41;;;15.99;33.31
32243;BME280;18731;42.830;24.390;2023-04-28T13:07:13;94653.94;;;15.91;33.58
32243;BME280;18731;42.830;24.390;2023-04-28T13:09:40;94668.97;;;15.92;33.92
32243;BME280;18731;42.830;24.390;2023-04-28T13:12:07;94661.91;;;15.84;33.26
32243;BME280;18731;42.830;24.390;2023-04-28T13:14:33;94654.44;;;15.39;32.57
32243;BME280;18731;42.830;24.390;2023-04-28T13:16:59;94658.69;;;15.40;33.95
32243;BME280;18731;42.830;24.390;2023-04-28T13:19:24;94644.38;;;15.36;33.04
32243;BME280;18731;42.830;24.390;2023-04-28T13:21:52;94646.38;;;15.58;34.36
32243;BME280;18731;42.830;24.390;2023-04-28T13:24:18;94650.47;;;15.52;32.97
32243;BME280;18731;42.830;24.390;2023-04-28T13:26:44;94640.63;;;15.40;32.40
32243;BME280;18731;42.830;24.390;2023-04-28T13:29:10;94651.88;;;15.27;33.01
32243;BME280;18731;42.830;24.390;2023-04-28T13:31:35;94651.75;;;14.85;33.09
32243;BME280;18731;42.830;24.390;2023-04-28T13:34:02;94639.44;;;14.84;33.64
32243;BME280;18731;42.830;24.390;2023-04-28T13:36:30;94631.84;;;15.24;34.84
32243;BME280;18731;42.830;24.390;2023-04-28T13:38:57;94633.41;;;15.25;33.86
32243;BME280;18731;42.830;24.390;2023-04-28T13:41:23;94642.19;;;15.41;33.59
32243;BME280;18731;42.830;24.390;2023-04-28T13:43:50;94641.19;;;15.30;33.47
32243;BME280;18731;42.830;24.390;2023-04-28T13:46:15;94634.41;;;15.36;33.88
32243;BME280;18731;42.830;24.390;2023-04-28T13:48:41;94626.69;;;15.35;32.79
32243;BME280;18731;42.830;24.390;2023-04-28T13:51:07;94639.34;;;15.34;33.54
32243;BME280;18731;42.830;24.390;2023-04-28T13:53:35;94634.69;;;15.51;33.03
32243;BME280;18731;42.830;24.390;2023-04-28T13:56:05;94637.38;;;15.31;33.51
32243;BME280;18731;42.830;24.390;2023-04-28T13:58:31;94641.53;;;15.09;35.39
32243;BME280;18731;42.830;24.390;2023-04-28T14:00:57;94634.41;;;15.36;35.72
32243;BME280;18731;42.830;24.390;2023-04-28T14:03:23;94640.63;;;15.21;34.25
32243;BME280;18731;42.830;24.390;2023-04-28T14:05:54;94622.50;;;15.18;33.15
32243;BME280;18731;42.830;24.390;2023-04-28T14:08:21;94638.19;;;14.97;34.29
32243;BME280;18731;42.830;24.390;2023-04-28T14:10:48;94620.75;;;14.71;34.48
32243;BME280;18731;42.830;24.390;2023-04-28T14:13:15;94639.94;;;14.54;34.42
32243;BME280;18731;42.830;24.390;2023-04-28T14:15:41;94631.63;;;14.43;35.48
32243;BME280;18731;42.830;24.390;2023-04-28T14:18:07;94635.47;;;14.77;35.24
32243;BME280;18731;42.830;24.390;2023-04-28T14:20:34;94638.53;;;14.95;35.60
32243;BME280;18731;42.830;24.390;2023-04-28T14:23:00;94633.47;;;14.74;35.63
32243;BME280;18731;42.830;24.390;2023-04-28T14:25:26;94607.34;;;14.40;35.26
32243;BME280;18731;42.830;24.390;2023-04-28T14:27:52;94632.72;;;14.58;35.76
32243;BME280;18731;42.830;24.390;2023-04-28T14:30:19;94626.13;;;14.71;36.39
32243;BME280;18731;42.830;24.390;2023-04-28T14:32:45;94636.19;;;14.59;35.13
32243;BME280;18731;42.830;24.390;2023-04-28T14:35:12;94621.41;;;14.49;34.28
32243;BME280;18731;42.830;24.390;2023-04-28T14:37:38;94633.69;;;14.34;35.16
32243;BME280;18731;42.830;24.390;2023-04-28T14:40:05;94630.56;;;14.16;36.26
32243;BME280;18731;42.830;24.390;2023-04-28T14:42:33;94628.22;;;14.31;36.74
32243;BME280;18731;42.830;24.390;2023-04-28T14:45:04;94616.38;;;14.47;37.30
32243;BME280;18731;42.830;24.390;2023-04-28T14:47:31;94621.28;;;14.61;35.41
32243;BME280;18731;42.830;24.390;2023-04-28T14:49:58;94624.41;;;14.63;36.07
32243;BME280;18731;42.830;24.390;2023-04-28T14:52:25;94612.41;;;14.76;35.70
32243;BME280;18731;42.830;24.390;2023-04-28T14:54:55;94612.19;;;14.66;36.23
32243;BME280;18731;42.830;24.390;2023-04-28T14:57:21;94607.63;;;14.51;35.93
32243;BME280;18731;42.830;24.390;2023-04-28T14:59:47;94603.28;;;14.46;36.92
32243;BME280;18731;42.830;24.390;2023-04-28T15:02:13;94611.66;;;14.60;37.27
32243;BME280;18731;42.830;24.390;2023-04-28T15:04:39;94563.78;;;14.31;37.32
32243;BME280;18731;42.830;24.390;2023-04-28T15:07:05;94613.00;;;14.51;37.28
32243;BME280;18731;42.830;24.390;2023-04-28T15:09:33;94608.13;;;14.25;36.86
32243;BME280;18731;42.830;24.390;2023-04-28T15:12:00;94611.09;;;14.20;37.36
32243;BME280;18731;42.830;24.390;2023-04-28T15:14:27;94614.97;;;14.06;37.71
32243;BME280;18731;42.830;24.390;2023-04-28T15:16:54;94617.59;;;14.03;36.76
32243;BME280;18731;42.830;24.390;2023-04-28T15:19:19;94609.34;;;14.11;37.46
32243;BME280;18731;42.830;24.390;2023-04-28T15:21:46;94607.09;;;14.13;38.89
32243;BME280;18731;42.830;24.390;2023-04-28T15:24:13;94604.69;;;14.08;37.65
32243;BME280;18731;42.830;24.390;2023-04-28T15:26:40;94607.63;;;14.19;37.31
32243;BME280;18731;42.830;24.390;2023-04-28T15:29:06;94617.84;;;13.98;37.27
32243;BME280;18731;42.830;24.390;2023-04-28T15:31:31;94619.47;;;14.18;37.74
32243;BME280;18731;42.830;24.390;2023-04-28T15:33:57;94607.28;;;14.21;37.91
32243;BME280;18731;42.830;24.390;2023-04-28T15:36:23;94607.19;;;14.17;39.32
32243;BME280;18731;42.830;24.390;2023-04-28T15:38:49;94618.88;;;14.25;39.84
32243;BME280;18731;42.830;24.390;2023-04-28T15:41:16;94611.41;;;14.34;37.88
32243;BME280;18731;42.830;24.390;2023-04-28T15:43:43;94596.34;;;14.29;38.32
32243;BME280;18731;42.830;24.390;2023-04-28T15:46:11;94607.72;;;14.23;39.19
32243;BME280;18731;42.830;24.390;2023-04-28T15:48:39;94606.31;;;13.97;38.42
32243;BME280;18731;42.830;24.390;2023-04-28T15:51:05;94606.91;;;13.75;39.22
32243;BME280;18731;42.830;24.390;2023-04-28T15:53:32;94601.19;;;13.61;38.63
32243;BME280;18731;42.830;24.390;2023-04-28T15:55:58;94602.66;;;13.58;41.90
32243;BME280;18731;42.830;24.390;2023-04-28T15:58:24;94605.69;;;13.57;40.16
32243;BME280;18731;42.830;24.390;2023-04-28T16:00:49;94616.50;;;13.60;40.10
32243;BME280;18731;42.830;24.390;2023-04-28T16:03:16;94608.38;;;13.72;39.47
32243;BME280;18731;42.830;24.390;2023-04-28T16:05:42;94609.44;;;13.83;38.91
32243;BME280;18731;42.830;24.390;2023-04-28T16:08:07;94610.28;;;13.72;38.75
32243;BME280;18731;42.830;24.390;2023-04-28T16:10:33;94603.88;;;13.61;40.01
32243;BME280;18731;42.830;24.390;2023-04-28T16:12:58;94608.28;;;13.69;40.77
32243;BME280;18731;42.830;24.390;2023-04-28T16:15:24;94602.84;;;13.65;41.39
32243;BME280;18731;42.830;24.390;2023-04-28T16:17:50;94608.19;;;13.65;44.34
32243;BME280;18731;42.830;24.390;2023-04-28T16:20:17;94606.34;;;13.54;41.09
32243;BME280;18731;42.830;24.390;2023-04-28T16:22:43;94608.78;;;13.59;40.95